sensor_id;sensor_type;location;lat;lon;timestamp;pressure;altitude;pressure_sealevel;temperature;humidity
6668;BME280;3370;47.712;9.082;2023-06-04T00:01:40;96873.88;;;17.31;63.78
6668;BME280;3370;47.712;9.082;2023-06-04T00:04:06;96867.72;;;17.21;63.89
6668;BME280;3370;47.712;9.082;2023-06-04T00:06:32;96864.88;;;17.13;64.35
6668;BME280;3370;47.712;9.082;2023-06-04T00:08:58;96867.13;;;17.17;64.08
6668;BME280;3370;47.712;9.082;2023-06-04T00:11:23;96869.63;;;17.30;63.84
6668;BME280;3370;47.712;9.082;2023-06-04T00:13:49;96877.22;;;17.33;63.29
6668;BME280;3370;47.712;9.082;2023-06-04T00:16:15;96874.56;;;17.22;63.32
6668;BME280;3370;47.712;9.082;2023-06-04T00:18:41;96865.13;;;17.10;63.20
6668;BME280;3370;47.712;9.082;2023-06-04T00:21:07;96877.44;;;16.95;63.73
6668;BME280;3370;47.712;9.082;2023-06-04T00:23:33;96868.69;;;16.84;63.96
6668;BME280;3370;47.712;9.082;2023-06-04T00:25:59;96873.78;;;16.86;65.17
6668;BME280;3370;47.712;9.082;2023-06-04T00:28:25;96875.91;;;16.92;64.99
6668;BME280;3370;47.712;9.082;2023-06-04T00:30:51;96870.00;;;16.90;65.48
6668;BME280;3370;47.712;9.082;2023-06-04T00:36:58;96881.09;;;16.68;66.52
6668;BME280;3370;47.712;9.082;2023-06-04T00:39:24;96870.31;;;16.61;66.81
6668;BME280;3370;47.712;9.082;2023-06-04T00:41:49;96875.06;;;16.67;65.86
6668;BME280;3370;47.712;9.082;2023-06-04T00:44:15;96869.03;;;16.91;65.28
6668;BME280;3370;47.712;9.082;2023-06-04T00:46:41;96871.88;;;16.88;66.11
6668;BME280;3370;47.712;9.082;2023-06-04T00:49:11;96868.38;;;16.76;65.93
6668;BME280;3370;47.712;9.082;2023-06-04T00:51:37;96880.50;;;16.64;66.09
6668;BME280;3370;47.712;9.082;2023-06-04T00:54:04;96874.47;;;16.40;66.87
6668;BME280;3370;47.712;9.082;2023-06-04T00:56:36;96877.91;;;16.27;67.09
6668;BME280;3370;47.712;9.082;2023-06-04T00:59:06;96872.97;;;16.24;67.57
6668;BME280;3370;47.712;9.082;2023-06-04T01:04:42;96879.59;;;16.28;66.86
6668;BME280;3370;47.712;9.082;2023-06-04T01:07:10;96871.50;;;16.20;67.40
6668;BME280;3370;47.712;9.082;2023-06-04T01:09:39;96874.28;;;16.30;67.76
6668;BME280;3370;47.712;9.082;2023-06-04T01:12:06;96870.63;;;16.33;67.20
6668;BME280;3370;47.712;9.082;2023-06-04T01:14:32;96874.19;;;16.32;67.62
6668;BME280;3370;47.712;9.082;2023-06-04T01:17:25;96875.13;;;16.31;67.36
6668;BME280;3370;47.712;9.082;2023-06-04T01:20:25;96879.06;;;16.23;67.10
6668;BME280;3370;47.712;9.082;2023-06-04T01:25:37;96874.56;;;16.01;67.09
6668;BME280;3370;47.712;9.082;2023-06-04T01:28:06;96872.81;;;16.02;67.51
6668;BME280;3370;47.712;9.082;2023-06-04T01:30:37;96874.69;;;15.87;69.43
6668;BME280;3370;47.712;9.082;2023-06-04T01:33:13;96872.84;;;15.76;70.03
6668;BME280;3370;47.712;9.082;2023-06-04T01:35:39;96868.47;;;15.77;69.76
6668;BME280;3370;47.712;9.082;2023-06-04T01:38:06;96864.63;;;15.69;70.18
6668;BME280;3370;47.712;9.082;2023-06-04T01:40:32;96862.88;;;15.57;70.58
6668;BME280;3370;47.712;9.082;2023-06-04T01:42:58;96857.38;;;15.49;70.39
6668;BME280;3370;47.712;9.082;2023-06-04T01:45:27;96872.31;;;15.45;70.57
6668;BME280;3370;47.712;9.082;2023-06-04T01:47:54;96868.66;;;15.61;68.31
6668;BME280;3370;47.712;9.082;2023-06-04T01:50:20;96878.84;;;15.64;67.91
6668;BME280;3370;47.712;9.082;2023-06-04T01:52:47;96869.72;;;15.58;67.63
6668;BME280;3370;47.712;9.082;2023-06-04T01:55:15;96880.09;;;15.45;68.64
6668;BME280;3370;47.712;9.082;2023-06-04T01:57:42;96880.28;;;15.42;68.07
6668;BME280;3370;47.712;9.082;2023-06-04T02:00:11;96878.41;;;15.44;68.56
6668;BME280;3370;47.712;9.082;2023-06-04T02:02:38;96879.88;;;15.48;68.06
6668;BME280;3370;47.712;9.082;2023-06-04T02:05:08;96877.91;;;15.39;68.54
6668;BME280;3370;47.712;9.082;2023-06-04T02:07:35;96881.53;;;15.24;69.63
6668;BME280;3370;47.712;9.082;2023-06-04T02:10:07;96887.44;;;15.26;69.61
6668;BME280;3370;47.712;9.082;2023-06-04T02:12:36;96887.31;;;15.14;69.75
6668;BME280;3370;47.712;9.082;2023-06-04T02:15:02;96894.13;;;15.03;69.36
6668;BME280;3370;47.712;9.082;2023-06-04T02:17:28;96901.88;;;15.03;69.11
6668;BME280;3370;47.712;9.082;2023-06-04T02:19:58;96900.16;;;15.03;69.50
6668;BME280;3370;47.712;9.082;2023-06-04T02:22:25;96891.88;;;15.11;70.40
6668;BME280;3370;47.712;9.082;2023-06-04T02:24:51;96900.88;;;15.05;71.20
6668;BME280;3370;47.712;9.082;2023-06-04T02:27:17;96901.59;;;15.07;71.63
6668;BME280;3370;47.712;9.082;2023-06-04T02:29:43;96903.47;;;15.05;72.21
6668;BME280;3370;47.712;9.082;2023-06-04T02:32:09;96900.16;;;15.16;71.75
6668;BME280;3370;47.712;9.082;2023-06-04T02:34:35;96899.91;;;15.06;71.92
6668;BME280;3370;47.712;9.082;2023-06-04T02:37:02;96911.41;;;15.02;72.06
6668;BME280;3370;47.712;9.082;2023-06-04T02:39:28;96901.41;;;15.10;71.56
6668;BME280;3370;47.712;9.082;2023-06-04T02:41:54;96911.75;;;15.10;71.48
6668;BME280;3370;47.712;9.082;2023-06-04T02:44:20;96905.50;;;15.00;72.10
6668;BME280;3370;47.712;9.082;2023-06-04T02:46:46;96905.94;;;14.94;72.44
6668;BME280;3370;47.712;9.082;2023-06-04T02:49:12;96904.34;;;14.91;72.51
6668;BME280;3370;47.712;9.082;2023-06-04T02:51:45;96907.38;;;14.98;72.42
6668;BME280;3370;47.712;9.082;2023-06-04T02:54:11;96912.16;;;15.04;72.32
6668;BME280;3370;47.712;9.082;2023-06-04T02:56:37;96911.75;;;15.10;71.54
6668;BME280;3370;47.712;9.082;2023-06-04T02:59:04;96907.69;;;15.06;71.48
6668;BME280;3370;47.712;9.082;2023-06-04T03:01:30;96912.38;;;15.01;71.24
6668;BME280;3370;47.712;9.082;2023-06-04T03:03:57;96914.19;;;14.99;71.18
6668;BME280;3370;47.712;9.082;2023-06-04T03:06:23;96909.88;;;15.00;71.11
6668;BME280;3370;47.712;9.082;2023-06-04T03:08:50;96913.47;;;14.97;71.37
6668;BME280;3370;47.712;9.082;2023-06-04T03:11:19;96915.75;;;14.89;71.79
6668;BME280;3370;47.712;9.082;2023-06-04T03:13:46;96921.28;;;15.10;71.02
6668;BME280;3370;47.712;9.082;2023-06-04T03:16:12;96924.97;;;14.93;71.36
6668;BME280;3370;47.712;9.082;2023-06-04T03:18:40;96922.44;;;14.79;72.07
6668;BME280;3370;47.712;9.082;2023-06-04T03:21:07;96927.22;;;14.85;72.43
6668;BME280;3370;47.712;9.082;2023-06-04T03:23:34;96925.59;;;14.69;72.60
6668;BME280;3370;47.712;9.082;2023-06-04T03:26:04;96932.06;;;14.76;72.34
6668;BME280;3370;47.712;9.082;2023-06-04T03:28:31;96931.19;;;14.63;72.66
6668;BME280;3370;47.712;9.082;2023-06-04T03:30:58;96935.81;;;14.58;73.02
6668;BME280;3370;47.712;9.082;2023-06-04T03:33:24;96941.00;;;14.58;73.42
6668;BME280;3370;47.712;9.082;2023-06-04T03:35:51;96932.78;;;14.79;72.08
6668;BME280;3370;47.712;9.082;2023-06-04T03:38:18;96940.84;;;14.74;72.42
6668;BME280;3370;47.712;9.082;2023-06-04T03:40:45;96945.75;;;14.64;72.72
6668;BME280;3370;47.712;9.082;2023-06-04T03:43:11;96947.72;;;14.61;73.45
6668;BME280;3370;47.712;9.082;2023-06-04T03:45:37;96950.22;;;14.62;73.74
6668;BME280;3370;47.712;9.082;2023-06-04T03:48:03;96950.75;;;14.67;74.00
6668;BME280;3370;47.712;9.082;2023-06-04T03:50:29;96954.66;;;14.60;74.43
6668;BME280;3370;47.712;9.082;2023-06-04T03:52:55;96960.19;;;14.54;74.59
6668;BME280;3370;47.712;9.082;2023-06-04T03:55:21;96955.94;;;14.53;74.87
6668;BME280;3370;47.712;9.082;2023-06-04T03:57:48;96958.63;;;14.51;75.43
6668;BME280;3370;47.712;9.082;2023-06-04T04:00:14;96961.84;;;14.55;75.48
6668;BME280;3370;47.712;9.082;2023-06-04T04:02:41;96960.56;;;14.62;75.63
6668;BME280;3370;47.712;9.082;2023-06-04T04:05:07;96963.34;;;14.59;76.00
6668;BME280;3370;47.712;9.082;2023-06-04T04:07:35;96966.94;;;14.56;75.95
6668;BME280;3370;47.712;9.082;2023-06-04T04:10:01;96966.09;;;14.56;76.34
6668;BME280;3370;47.712;9.082;2023-06-04T04:12:27;96966.09;;;14.56;75.90
6668;BME280;3370;47.712;9.082;2023-06-04T04:14:53;96968.69;;;14.56;76.32
6668;BME280;3370;47.712;9.082;2023-06-04T04:17:18;96965.66;;;14.64;76.02
6668;BME280;3370;47.712;9.082;2023-06-04T04:19:44;96966.47;;;14.64;76.27
6668;BME280;3370;47.712;9.082;2023-06-04T04:22:11;96962.47;;;14.73;76.54
6668;BME280;3370;47.712;9.082;2023-06-04T04:24:37;96959.78;;;14.74;76.62
6668;BME280;3370;47.712;9.082;2023-06-04T04:27:04;96962.19;;;14.78;76.55
6668;BME280;3370;47.712;9.082;2023-06-04T04:29:30;96969.03;;;14.79;76.52
6668;BME280;3370;47.712;9.082;2023-06-04T04:32:01;96972.25;;;14.82;76.26
6668;BME280;3370;47.712;9.082;2023-06-04T04:34:38;96967.69;;;14.86;76.70
6668;BME280;3370;47.712;9.082;2023-06-04T04:37:08;96968.88;;;14.94;76.06
6668;BME280;3370;47.712;9.082;2023-06-04T04:39:35;96977.59;;;15.06;75.32
6668;BME280;3370;47.712;9.082;2023-06-04T04:42:02;96982.09;;;15.17;74.98
6668;BME280;3370;47.712;9.082;2023-06-04T04:44:28;96978.41;;;15.21;74.63
6668;BME280;3370;47.712;9.082;2023-06-04T04:46:54;96982.88;;;15.32;73.82
6668;BME280;3370;47.712;9.082;2023-06-04T04:49:20;96987.56;;;15.40;73.29
6668;BME280;3370;47.712;9.082;2023-06-04T04:51:46;96995.00;;;15.44;73.74
6668;BME280;3370;47.712;9.082;2023-06-04T04:54:12;96987.03;;;15.47;73.66
6668;BME280;3370;47.712;9.082;2023-06-04T04:56:38;96977.03;;;15.56;73.83
6668;BME280;3370;47.712;9.082;2023-06-04T04:59:06;96984.56;;;15.59;74.17
6668;BME280;3370;47.712;9.082;2023-06-04T05:01:32;96992.88;;;15.64;74.14
6668;BME280;3370;47.712;9.082;2023-06-04T05:03:58;96986.06;;;15.63;73.80
6668;BME280;3370;47.712;9.082;2023-06-04T05:06:24;96983.13;;;15.67;73.59
6668;BME280;3370;47.712;9.082;2023-06-04T05:08:49;97000.13;;;15.71;72.88
6668;BME280;3370;47.712;9.082;2023-06-04T05:11:15;96990.41;;;15.75;72.09
6668;BME280;3370;47.712;9.082;2023-06-04T05:13:41;96991.47;;;15.85;70.63
6668;BME280;3370;47.712;9.082;2023-06-04T05:16:07;96993.34;;;15.96;68.48
6668;BME280;3370;47.712;9.082;2023-06-04T05:18:34;96995.31;;;15.93;67.86
6668;BME280;3370;47.712;9.082;2023-06-04T05:21:00;97006.59;;;15.91;67.69
6668;BME280;3370;47.712;9.082;2023-06-04T05:23:28;97004.97;;;15.90;66.50
6668;BME280;3370;47.712;9.082;2023-06-04T05:26:00;97012.53;;;15.94;65.82
6668;BME280;3370;47.712;9.082;2023-06-04T05:28:31;97014.53;;;15.90;66.46
6668;BME280;3370;47.712;9.082;2023-06-04T05:30:59;97018.03;;;16.02;66.46
6668;BME280;3370;47.712;9.082;2023-06-04T05:33:30;97019.81;;;15.88;66.69
6668;BME280;3370;47.712;9.082;2023-06-04T05:35:56;97023.03;;;16.05;68.12
6668;BME280;3370;47.712;9.082;2023-06-04T05:38:24;97024.66;;;16.06;67.06
6668;BME280;3370;47.712;9.082;2023-06-04T05:40:56;97031.28;;;15.84;70.10
6668;BME280;3370;47.712;9.082;2023-06-04T05:43:22;97027.25;;;15.80;70.88
6668;BME280;3370;47.712;9.082;2023-06-04T05:45:48;97020.09;;;15.97;70.67
6668;BME280;3370;47.712;9.082;2023-06-04T05:48:15;97024.47;;;15.83;71.13
6668;BME280;3370;47.712;9.082;2023-06-04T05:50:40;97021.81;;;15.58;71.63
6668;BME280;3370;47.712;9.082;2023-06-04T05:53:06;97023.94;;;15.78;71.77
6668;BME280;3370;47.712;9.082;2023-06-04T05:55:32;97013.66;;;15.89;71.54
6668;BME280;3370;47.712;9.082;2023-06-04T05:57:58;97018.94;;;15.75;71.28
6668;BME280;3370;47.712;9.082;2023-06-04T06:00:24;97018.66;;;15.80;72.58
6668;BME280;3370;47.712;9.082;2023-06-04T06:02:50;97019.56;;;15.79;71.26
6668;BME280;3370;47.712;9.082;2023-06-04T06:05:18;97017.72;;;15.94;72.19
6668;BME280;3370;47.712;9.082;2023-06-04T06:07:45;97015.88;;;15.96;70.22
6668;BME280;3370;47.712;9.082;2023-06-04T06:10:12;97018.84;;;16.02;69.53
6668;BME280;3370;47.712;9.082;2023-06-04T06:12:39;97024.25;;;15.86;70.39
6668;BME280;3370;47.712;9.082;2023-06-04T06:15:05;97025.00;;;16.14;70.69
6668;BME280;3370;47.712;9.082;2023-06-04T06:17:32;97021.97;;;16.07;69.27
6668;BME280;3370;47.712;9.082;2023-06-04T06:19:58;97025.50;;;16.19;68.81
6668;BME280;3370;47.712;9.082;2023-06-04T06:22:24;97019.91;;;16.25;68.70
6668;BME280;3370;47.712;9.082;2023-06-04T06:24:50;97028.81;;;16.21;68.30
6668;BME280;3370;47.712;9.082;2023-06-04T06:27:17;97026.53;;;16.04;68.81
6668;BME280;3370;47.712;9.082;2023-06-04T06:29:43;97036.09;;;16.03;69.13
6668;BME280;3370;47.712;9.082;2023-06-04T06:32:13;97042.09;;;16.04;70.95
6668;BME280;3370;47.712;9.082;2023-06-04T06:34:38;97040.75;;;16.11;69.52
6668;BME280;3370;47.712;9.082;2023-06-04T06:37:06;97047.28;;;15.91;70.08
6668;BME280;3370;47.712;9.082;2023-06-04T06:39:32;97045.00;;;15.99;69.53
6668;BME280;3370;47.712;9.082;2023-06-04T06:41:58;97041.06;;;16.06;70.37
6668;BME280;3370;47.712;9.082;2023-06-04T06:44:23;97041.47;;;16.13;68.86
6668;BME280;3370;47.712;9.082;2023-06-04T06:46:49;97041.69;;;16.23;68.18
6668;BME280;3370;47.712;9.082;2023-06-04T06:49:16;97037.53;;;16.20;67.79
6668;BME280;3370;47.712;9.082;2023-06-04T06:51:41;97035.53;;;16.37;68.65
6668;BME280;3370;47.712;9.082;2023-06-04T06:54:10;97049.75;;;16.57;69.00
6668;BME280;3370;47.712;9.082;2023-06-04T06:56:36;97056.59;;;16.58;67.70
6668;BME280;3370;47.712;9.082;2023-06-04T06:59:02;97057.53;;;16.57;66.61
6668;BME280;3370;47.712;9.082;2023-06-04T07:01:28;97054.81;;;16.71;68.79
6668;BME280;3370;47.712;9.082;2023-06-04T07:03:53;97052.09;;;16.73;66.21
6668;BME280;3370;47.712;9.082;2023-06-04T07:06:19;97046.00;;;16.86;66.89
6668;BME280;3370;47.712;9.082;2023-06-04T07:08:45;97042.78;;;16.83;65.44
6668;BME280;3370;47.712;9.082;2023-06-04T07:11:13;97041.63;;;16.87;63.97
6668;BME280;3370;47.712;9.082;2023-06-04T07:13:39;97049.91;;;16.92;65.12
6668;BME280;3370;47.712;9.082;2023-06-04T07:16:05;97049.72;;;16.95;65.91
6668;BME280;3370;47.712;9.082;2023-06-04T07:18:32;97049.81;;;16.94;65.98
6668;BME280;3370;47.712;9.082;2023-06-04T07:20:58;97047.63;;;16.75;64.86
6668;BME280;3370;47.712;9.082;2023-06-04T07:23:24;97046.81;;;16.87;65.15
6668;BME280;3370;47.712;9.082;2023-06-04T07:25:50;97041.97;;;17.07;64.85
6668;BME280;3370;47.712;9.082;2023-06-04T07:28:16;97037.28;;;17.12;64.84
6668;BME280;3370;47.712;9.082;2023-06-04T07:30:45;97039.53;;;17.16;64.72
6668;BME280;3370;47.712;9.082;2023-06-04T07:33:11;97041.75;;;17.10;64.28
6668;BME280;3370;47.712;9.082;2023-06-04T07:35:37;97031.78;;;17.03;64.49
6668;BME280;3370;47.712;9.082;2023-06-04T07:38:02;97040.50;;;17.15;65.94
6668;BME280;3370;47.712;9.082;2023-06-04T07:40:28;97031.00;;;17.38;64.64
6668;BME280;3370;47.712;9.082;2023-06-04T07:42:54;97034.56;;;17.37;63.10
6668;BME280;3370;47.712;9.082;2023-06-04T07:45:23;97040.94;;;17.33;64.03
6668;BME280;3370;47.712;9.082;2023-06-04T07:47:49;97036.59;;;17.45;63.34
6668;BME280;3370;47.712;9.082;2023-06-04T07:50:15;97035.03;;;17.67;63.37
6668;BME280;3370;47.712;9.082;2023-06-04T07:52:41;97039.16;;;17.69;63.46
6668;BME280;3370;47.712;9.082;2023-06-04T07:55:07;97037.63;;;18.02;62.64
6668;BME280;3370;47.712;9.082;2023-06-04T07:57:34;97034.06;;;17.92;60.95
6668;BME280;3370;47.712;9.082;2023-06-04T08:00:00;97033.09;;;17.93;60.81
6668;BME280;3370;47.712;9.082;2023-06-04T08:02:27;97032.22;;;17.81;60.14
6668;BME280;3370;47.712;9.082;2023-06-04T08:04:53;97035.41;;;17.73;62.00
6668;BME280;3370;47.712;9.082;2023-06-04T08:07:18;97033.59;;;17.98;61.94
6668;BME280;3370;47.712;9.082;2023-06-04T08:09:44;97025.81;;;18.09;60.00
6668;BME280;3370;47.712;9.082;2023-06-04T08:12:11;97025.81;;;18.20;61.76
6668;BME280;3370;47.712;9.082;2023-06-04T08:14:36;97026.03;;;18.06;61.95
6668;BME280;3370;47.712;9.082;2023-06-04T08:17:02;97022.97;;;18.12;61.01
6668;BME280;3370;47.712;9.082;2023-06-04T08:19:28;97028.63;;;17.95;60.47
6668;BME280;3370;47.712;9.082;2023-06-04T08:21:54;97024.84;;;18.10;61.77
6668;BME280;3370;47.712;9.082;2023-06-04T08:24:21;97023.69;;;18.37;60.47
6668;BME280;3370;47.712;9.082;2023-06-04T08:26:47;97026.53;;;18.45;61.96
6668;BME280;3370;47.712;9.082;2023-06-04T08:29:13;97027.59;;;18.65;61.02
6668;BME280;3370;47.712;9.082;2023-06-04T08:31:39;97023.69;;;18.59;60.25
6668;BME280;3370;47.712;9.082;2023-06-04T08:34:05;97023.34;;;18.64;59.40
6668;BME280;3370;47.712;9.082;2023-06-04T08:36:31;97020.97;;;18.50;59.41
6668;BME280;3370;47.712;9.082;2023-06-04T08:38:58;97018.22;;;18.74;58.83
6668;BME280;3370;47.712;9.082;2023-06-04T08:41:52;97021.78;;;18.62;58.77
6668;BME280;3370;47.712;9.082;2023-06-04T08:44:20;97022.97;;;18.69;58.36
6668;BME280;3370;47.712;9.082;2023-06-04T08:46:51;97027.72;;;18.75;62.42
6668;BME280;3370;47.712;9.082;2023-06-04T08:49:19;97032.44;;;18.92;59.12
6668;BME280;3370;47.712;9.082;2023-06-04T08:51:47;97033.84;;;19.08;61.69
6668;BME280;3370;47.712;9.082;2023-06-04T08:54:14;97027.78;;;19.07;58.62
6668;BME280;3370;47.712;9.082;2023-06-04T08:56:40;97023.31;;;19.30;60.38
6668;BME280;3370;47.712;9.082;2023-06-04T08:59:07;97024.53;;;19.26;58.76
6668;BME280;3370;47.712;9.082;2023-06-04T09:01:34;97028.34;;;19.22;57.66
6668;BME280;3370;47.712;9.082;2023-06-04T09:04:05;97029.28;;;19.21;59.44
6668;BME280;3370;47.712;9.082;2023-06-04T09:06:33;97026.34;;;19.47;60.87
6668;BME280;3370;47.712;9.082;2023-06-04T09:09:02;97022.84;;;19.37;59.16
6668;BME280;3370;47.712;9.082;2023-06-04T09:11:53;97025.50;;;19.25;59.26
6668;BME280;3370;47.712;9.082;2023-06-04T09:14:19;97041.38;;;19.22;60.44
6668;BME280;3370;47.712;9.082;2023-06-04T09:16:49;97031.53;;;19.47;60.62
6668;BME280;3370;47.712;9.082;2023-06-04T09:19:17;97035.53;;;19.62;58.65
6668;BME280;3370;47.712;9.082;2023-06-04T09:22:01;97030.75;;;19.67;58.45
6668;BME280;3370;47.712;9.082;2023-06-04T09:24:46;97028.63;;;19.61;59.12
6668;BME280;3370;47.712;9.082;2023-06-04T09:27:17;97033.03;;;19.93;59.96
6668;BME280;3370;47.712;9.082;2023-06-04T09:29:57;97021.06;;;20.21;56.43
6668;BME280;3370;47.712;9.082;2023-06-04T09:32:29;97015.56;;;20.45;57.69
6668;BME280;3370;47.712;9.082;2023-06-04T09:35:08;97017.25;;;20.56;57.28
6668;BME280;3370;47.712;9.082;2023-06-04T09:37:35;97017.31;;;20.76;58.00
6668;BME280;3370;47.712;9.082;2023-06-04T09:40:01;97012.50;;;20.71;56.97
6668;BME280;3370;47.712;9.082;2023-06-04T09:42:29;97011.84;;;20.79;59.32
6668;BME280;3370;47.712;9.082;2023-06-04T09:44:55;97011.97;;;20.77;56.92
6668;BME280;3370;47.712;9.082;2023-06-04T09:47:20;97013.94;;;20.95;54.37
6668;BME280;3370;47.712;9.082;2023-06-04T09:49:49;97008.41;;;20.78;53.82
6668;BME280;3370;47.712;9.082;2023-06-04T09:52:17;97012.09;;;20.76;53.99
6668;BME280;3370;47.712;9.082;2023-06-04T09:54:43;96999.03;;;20.66;57.16
6668;BME280;3370;47.712;9.082;2023-06-04T09:57:18;97005.34;;;20.63;57.91
6668;BME280;3370;47.712;9.082;2023-06-04T09:59:50;97000.13;;;20.73;57.81
6668;BME280;3370;47.712;9.082;2023-06-04T10:02:20;97001.69;;;20.85;57.18
6668;BME280;3370;47.712;9.082;2023-06-04T10:04:54;97001.38;;;20.69;56.34
6668;BME280;3370;47.712;9.082;2023-06-04T10:07:23;97007.72;;;20.86;54.72
6668;BME280;3370;47.712;9.082;2023-06-04T10:09:50;96996.75;;;21.12;55.73
6668;BME280;3370;47.712;9.082;2023-06-04T10:12:17;96992.38;;;21.22;52.70
6668;BME280;3370;47.712;9.082;2023-06-04T10:15:02;97000.94;;;21.53;53.63
6668;BME280;3370;47.712;9.082;2023-06-04T10:17:31;96996.00;;;21.50;50.62
6668;BME280;3370;47.712;9.082;2023-06-04T10:19:58;97002.44;;;21.66;51.94
6668;BME280;3370;47.712;9.082;2023-06-04T10:22:25;96993.53;;;22.06;48.07
6668;BME280;3370;47.712;9.082;2023-06-04T10:24:51;97000.44;;;22.54;47.71
6668;BME280;3370;47.712;9.082;2023-06-04T10:27:18;96998.38;;;22.48;47.44
6668;BME280;3370;47.712;9.082;2023-06-04T10:29:46;96994.31;;;22.63;48.04
6668;BME280;3370;47.712;9.082;2023-06-04T10:32:12;96998.03;;;22.88;47.25
6668;BME280;3370;47.712;9.082;2023-06-04T10:34:38;96993.31;;;22.92;44.97
6668;BME280;3370;47.712;9.082;2023-06-04T10:37:05;96990.91;;;23.08;45.23
6668;BME280;3370;47.712;9.082;2023-06-04T10:39:32;96995.00;;;23.29;46.11
6668;BME280;3370;47.712;9.082;2023-06-04T10:42:03;96993.38;;;23.10;46.53
6668;BME280;3370;47.712;9.082;2023-06-04T10:44:45;96992.63;;;22.72;44.85
6668;BME280;3370;47.712;9.082;2023-06-04T10:47:38;96998.72;;;22.90;45.44
6668;BME280;3370;47.712;9.082;2023-06-04T10:50:09;96992.00;;;23.60;44.68
6668;BME280;3370;47.712;9.082;2023-06-04T10:52:37;96989.63;;;23.92;41.83
6668;BME280;3370;47.712;9.082;2023-06-04T10:55:05;96995.00;;;23.65;42.40
6668;BME280;3370;47.712;9.082;2023-06-04T10:57:32;96974.53;;;23.95;42.43
6668;BME280;3370;47.712;9.082;2023-06-04T11:00:00;96985.06;;;24.55;41.41
6668;BME280;3370;47.712;9.082;2023-06-04T11:02:26;96981.69;;;24.37;40.55
6668;BME280;3370;47.712;9.082;2023-06-04T11:05:05;96972.66;;;24.82;38.41
6668;BME280;3370;47.712;9.082;2023-06-04T11:07:45;96977.38;;;25.29;38.09
6668;BME280;3370;47.712;9.082;2023-06-04T11:10:13;96980.63;;;25.72;37.61
6668;BME280;3370;47.712;9.082;2023-06-04T11:12:49;96976.19;;;26.06;37.57
6668;BME280;3370;47.712;9.082;2023-06-04T11:15:18;96973.88;;;26.50;36.71
6668;BME280;3370;47.712;9.082;2023-06-04T11:17:54;96971.81;;;27.54;33.65
6668;BME280;3370;47.712;9.082;2023-06-04T11:20:22;96973.53;;;27.85;32.55
6668;BME280;3370;47.712;9.082;2023-06-04T11:22:57;96972.78;;;27.77;31.91
6668;BME280;3370;47.712;9.082;2023-06-04T11:25:27;96974.03;;;27.81;32.30
6668;BME280;3370;47.712;9.082;2023-06-04T11:27:54;96971.06;;;27.84;31.38
6668;BME280;3370;47.712;9.082;2023-06-04T11:30:21;96979.63;;;27.86;32.24
6668;BME280;3370;47.712;9.082;2023-06-04T11:32:48;96973.75;;;28.14;32.33
6668;BME280;3370;47.712;9.082;2023-06-04T11:35:14;96968.25;;;28.75;32.65
6668;BME280;3370;47.712;9.082;2023-06-04T11:37:40;96967.91;;;29.14;32.80
6668;BME280;3370;47.712;9.082;2023-06-04T11:40:19;96972.84;;;29.46;33.27
6668;BME280;3370;47.712;9.082;2023-06-04T11:42:49;96966.78;;;29.73;30.15
6668;BME280;3370;47.712;9.082;2023-06-04T11:45:20;96959.47;;;30.38;28.39
6668;BME280;3370;47.712;9.082;2023-06-04T11:47:51;96969.31;;;30.10;27.66
6668;BME280;3370;47.712;9.082;2023-06-04T11:50:18;96970.31;;;30.09;27.89
6668;BME280;3370;47.712;9.082;2023-06-04T11:52:44;96956.81;;;30.38;27.08
6668;BME280;3370;47.712;9.082;2023-06-04T11:55:12;96963.44;;;29.65;29.04
6668;BME280;3370;47.712;9.082;2023-06-04T11:57:38;96961.13;;;30.11;29.24
6668;BME280;3370;47.712;9.082;2023-06-04T12:00:06;96946.31;;;30.17;27.93
6668;BME280;3370;47.712;9.082;2023-06-04T12:02:49;96958.91;;;30.15;28.26
6668;BME280;3370;47.712;9.082;2023-06-04T12:05:17;96961.06;;;29.70;26.95
6668;BME280;3370;47.712;9.082;2023-06-04T12:07:47;96953.66;;;29.15;28.86
6668;BME280;3370;47.712;9.082;2023-06-04T12:10:20;96950.72;;;29.10;28.92
6668;BME280;3370;47.712;9.082;2023-06-04T12:12:46;96944.75;;;29.73;30.25
6668;BME280;3370;47.712;9.082;2023-06-04T12:15:20;96953.78;;;30.07;27.52
6668;BME280;3370;47.712;9.082;2023-06-04T12:17:52;96946.31;;;30.58;26.53
6668;BME280;3370;47.712;9.082;2023-06-04T12:22:58;96953.13;;;30.88;25.14
6668;BME280;3370;47.712;9.082;2023-06-04T12:25:25;96948.72;;;31.22;25.86
6668;BME280;3370;47.712;9.082;2023-06-04T12:27:51;96951.81;;;31.45;24.84
6668;BME280;3370;47.712;9.082;2023-06-04T12:30:17;96949.59;;;31.56;25.02
6668;BME280;3370;47.712;9.082;2023-06-04T12:32:43;96939.34;;;31.79;24.39
6668;BME280;3370;47.712;9.082;2023-06-04T12:35:11;96948.75;;;31.95;23.21
6668;BME280;3370;47.712;9.082;2023-06-04T12:37:37;96950.00;;;31.66;25.77
6668;BME280;3370;47.712;9.082;2023-06-04T12:40:04;96952.41;;;31.27;25.60
6668;BME280;3370;47.712;9.082;2023-06-04T12:42:32;96946.38;;;30.79;24.85
6668;BME280;3370;47.712;9.082;2023-06-04T12:44:58;96947.50;;;30.56;25.34
6668;BME280;3370;47.712;9.082;2023-06-04T12:47:23;96957.28;;;30.97;25.86
6668;BME280;3370;47.712;9.082;2023-06-04T12:49:49;96950.59;;;31.28;24.44
6668;BME280;3370;47.712;9.082;2023-06-04T12:52:16;96955.91;;;31.41;25.18
6668;BME280;3370;47.712;9.082;2023-06-04T12:54:42;96949.16;;;31.39;25.24
6668;BME280;3370;47.712;9.082;2023-06-04T12:57:08;96949.16;;;31.19;24.80
6668;BME280;3370;47.712;9.082;2023-06-04T12:59:35;96944.63;;;30.99;26.09
6668;BME280;3370;47.712;9.082;2023-06-04T13:02:00;96951.97;;;31.10;25.85
6668;BME280;3370;47.712;9.082;2023-06-04T13:04:26;96946.72;;;31.24;25.00
6668;BME280;3370;47.712;9.082;2023-06-04T13:06:52;96949.09;;;31.05;25.51
6668;BME280;3370;47.712;9.082;2023-06-04T13:09:21;96949.53;;;31.09;27.63
6668;BME280;3370;47.712;9.082;2023-06-04T13:11:48;96945.69;;;31.65;26.95
6668;BME280;3370;47.712;9.082;2023-06-04T13:14:15;96934.84;;;31.93;24.02
6668;BME280;3370;47.712;9.082;2023-06-04T13:16:41;96942.19;;;31.98;24.29
6668;BME280;3370;47.712;9.082;2023-06-04T13:19:07;96941.84;;;31.67;25.38
6668;BME280;3370;47.712;9.082;2023-06-04T13:21:34;96944.25;;;31.69;25.23
6668;BME280;3370;47.712;9.082;2023-06-04T13:24:00;96944.66;;;31.86;24.72
6668;BME280;3370;47.712;9.082;2023-06-04T13:26:26;96937.47;;;32.13;25.38
6668;BME280;3370;47.712;9.082;2023-06-04T13:28:52;96938.22;;;32.34;25.47
6668;BME280;3370;47.712;9.082;2023-06-04T13:31:18;96938.81;;;32.49;24.43
6668;BME280;3370;47.712;9.082;2023-06-04T13:33:44;96941.59;;;32.67;24.62
6668;BME280;3370;47.712;9.082;2023-06-04T13:36:09;96938.69;;;32.76;22.90
6668;BME280;3370;47.712;9.082;2023-06-04T13:38:35;96942.00;;;32.58;23.42